sensor_id;sensor_type;location;lat;lon;timestamp;temperature;humidity
67273;DHT22;54190;49.770;9.250;2023-06-14T00:00:42;17.90;59.90
67273;DHT22;54190;49.770;9.250;2023-06-14T00:03:09;17.70;60.30
67273;DHT22;54190;49.770;9.250;2023-06-14T00:05:36;17.60;59.60
67273;DHT22;54190;49.770;9.250;2023-06-14T00:08:09;17.60;60.90
67273;DHT22;54190;49.770;9.250;2023-06-14T00:10:35;17.50;59.60
67273;DHT22;54190;49.770;9.250;2023-06-14T00:13:04;17.60;58.70
67273;DHT22;54190;49.770;9.250;2023-06-14T00:15:33;17.60;60.30
67273;DHT22;54190;49.770;9.250;2023-06-14T00:18:00;17.60;59.70
67273;DHT22;54190;49.770;9.250;2023-06-14T00:20:30;17.70;57.30
67273;DHT22;54190;49.770;9.250;2023-06-14T00:22:58;17.70;56.60
67273;DHT22;54190;49.770;9.250;2023-06-14T00:25:24;17.80;56.60
67273;DHT22;54190;49.770;9.250;2023-06-14T00:27:51;17.90;56.60
67273;DHT22;54190;49.770;9.250;2023-06-14T00:30:17;17.90;57.30
67273;DHT22;54190;49.770;9.250;2023-06-14T00:32:43;17.90;58.50
67273;DHT22;54190;49.770;9.250;2023-06-14T00:35:09;17.90;59.60
67273;DHT22;54190;49.770;9.250;2023-06-14T00:37:36;17.80;60.40
67273;DHT22;54190;49.770;9.250;2023-06-14T00:40:02;17.60;61.00
67273;DHT22;54190;49.770;9.250;2023-06-14T00:42:28;17.40;61.60
67273;DHT22;54190;49.770;9.250;2023-06-14T00:44:54;17.30;62.70
67273;DHT22;54190;49.770;9.250;2023-06-14T00:47:20;17.00;63.60
67273;DHT22;54190;49.770;9.250;2023-06-14T00:49:49;16.80;63.80
67273;DHT22;54190;49.770;9.250;2023-06-14T00:52:17;16.70;64.50
67273;DHT22;54190;49.770;9.250;2023-06-14T00:54:43;16.70;64.90
67273;DHT22;54190;49.770;9.250;2023-06-14T00:57:10;16.70;65.60
67273;DHT22;54190;49.770;9.250;2023-06-14T00:59:47;16.60;65.20
67273;DHT22;54190;49.770;9.250;2023-06-14T01:02:13;16.70;65.60
67273;DHT22;54190;49.770;9.250;2023-06-14T01:04:46;16.70;65.90
67273;DHT22;54190;49.770;9.250;2023-06-14T01:10:01;16.40;67.10
67273;DHT22;54190;49.770;9.250;2023-06-14T01:12:39;16.40;67.60
67273;DHT22;54190;49.770;9.250;2023-06-14T01:15:07;16.20;67.90
67273;DHT22;54190;49.770;9.250;2023-06-14T01:17:33;16.10;68.30
67273;DHT22;54190;49.770;9.250;2023-06-14T01:20:02;16.10;69.10
67273;DHT22;54190;49.770;9.250;2023-06-14T01:22:28;16.10;69.20
67273;DHT22;54190;49.770;9.250;2023-06-14T01:24:55;16.10;69.30
67273;DHT22;54190;49.770;9.250;2023-06-14T01:27:24;16.10;69.80
67273;DHT22;54190;49.770;9.250;2023-06-14T01:29:54;15.90;70.00
67273;DHT22;54190;49.770;9.250;2023-06-14T01:32:24;16.00;70.70
67273;DHT22;54190;49.770;9.250;2023-06-14T01:34:50;15.90;70.90
67273;DHT22;54190;49.770;9.250;2023-06-14T01:37:17;15.90;71.10
67273;DHT22;54190;49.770;9.250;2023-06-14T01:39:44;15.80;71.70
67273;DHT22;54190;49.770;9.250;2023-06-14T01:42:11;15.80;72.40
67273;DHT22;54190;49.770;9.250;2023-06-14T01:44:42;15.80;72.30
67273;DHT22;54190;49.770;9.250;2023-06-14T01:47:08;15.80;72.90
67273;DHT22;54190;49.770;9.250;2023-06-14T01:49:34;15.80;73.80
67273;DHT22;54190;49.770;9.250;2023-06-14T01:52:01;15.70;73.70
67273;DHT22;54190;49.770;9.250;2023-06-14T01:54:26;15.50;74.20
67273;DHT22;54190;49.770;9.250;2023-06-14T01:56:53;15.40;74.80
67273;DHT22;54190;49.770;9.250;2023-06-14T01:59:18;15.30;74.90
67273;DHT22;54190;49.770;9.250;2023-06-14T02:01:44;15.20;75.20
67273;DHT22;54190;49.770;9.250;2023-06-14T02:04:11;15.10;75.80
67273;DHT22;54190;49.770;9.250;2023-06-14T02:06:37;15.10;76.40
67273;DHT22;54190;49.770;9.250;2023-06-14T02:09:03;15.10;76.70
67273;DHT22;54190;49.770;9.250;2023-06-14T02:11:29;15.10;77.40
67273;DHT22;54190;49.770;9.250;2023-06-14T02:13:55;15.00;77.70
67273;DHT22;54190;49.770;9.250;2023-06-14T02:16:21;14.90;78.50
67273;DHT22;54190;49.770;9.250;2023-06-14T02:18:47;14.80;78.70
67273;DHT22;54190;49.770;9.250;2023-06-14T02:21:14;14.70;79.70
67273;DHT22;54190;49.770;9.250;2023-06-14T02:23:40;14.60;80.10
67273;DHT22;54190;49.770;9.250;2023-06-14T02:26:06;14.50;80.30
67273;DHT22;54190;49.770;9.250;2023-06-14T02:28:33;14.50;80.90
67273;DHT22;54190;49.770;9.250;2023-06-14T02:31:01;14.40;81.50
67273;DHT22;54190;49.770;9.250;2023-06-14T02:33:26;14.50;81.80
67273;DHT22;54190;49.770;9.250;2023-06-14T02:35:52;14.40;82.00
67273;DHT22;54190;49.770;9.250;2023-06-14T02:38:18;14.40;82.40
67273;DHT22;54190;49.770;9.250;2023-06-14T02:40:44;14.40;82.80
67273;DHT22;54190;49.770;9.250;2023-06-14T02:43:09;14.30;83.50
67273;DHT22;54190;49.770;9.250;2023-06-14T02:45:35;14.30;84.10
67273;DHT22;54190;49.770;9.250;2023-06-14T02:48:01;14.20;84.70
67273;DHT22;54190;49.770;9.250;2023-06-14T02:50:26;14.20;85.10
67273;DHT22;54190;49.770;9.250;2023-06-14T02:52:53;14.20;85.20
67273;DHT22;54190;49.770;9.250;2023-06-14T02:55:21;14.10;85.70
67273;DHT22;54190;49.770;9.250;2023-06-14T02:57:47;14.00;86.10
67273;DHT22;54190;49.770;9.250;2023-06-14T03:00:13;14.00;86.60
67273;DHT22;54190;49.770;9.250;2023-06-14T03:02:41;13.90;87.40
67273;DHT22;54190;49.770;9.250;2023-06-14T03:05:08;13.60;88.80
67273;DHT22;54190;49.770;9.250;2023-06-14T03:07:34;13.40;89.50
67273;DHT22;54190;49.770;9.250;2023-06-14T03:10:02;13.50;90.10
67273;DHT22;54190;49.770;9.250;2023-06-14T03:12:29;13.50;90.40
67273;DHT22;54190;49.770;9.250;2023-06-14T03:14:55;13.60;90.40
67273;DHT22;54190;49.770;9.250;2023-06-14T03:17:23;13.60;90.20
67273;DHT22;54190;49.770;9.250;2023-06-14T03:19:49;13.60;90.50
67273;DHT22;54190;49.770;9.250;2023-06-14T03:22:15;13.60;90.50
67273;DHT22;54190;49.770;9.250;2023-06-14T03:24:42;13.60;90.50
67273;DHT22;54190;49.770;9.250;2023-06-14T03:27:12;13.70;90.60
67273;DHT22;54190;49.770;9.250;2023-06-14T03:29:42;13.60;90.70
67273;DHT22;54190;49.770;9.250;2023-06-14T03:32:08;13.60;90.60
67273;DHT22;54190;49.770;9.250;2023-06-14T03:34:39;13.60;90.90
67273;DHT22;54190;49.770;9.250;2023-06-14T03:37:09;13.60;91.10
67273;DHT22;54190;49.770;9.250;2023-06-14T03:39:35;13.60;91.00
67273;DHT22;54190;49.770;9.250;2023-06-14T03:42:01;13.60;91.20
67273;DHT22;54190;49.770;9.250;2023-06-14T03:44:27;13.50;91.30
67273;DHT22;54190;49.770;9.250;2023-06-14T03:46:53;13.50;91.70
67273;DHT22;54190;49.770;9.250;2023-06-14T03:49:19;13.50;91.70
67273;DHT22;54190;49.770;9.250;2023-06-14T03:51:45;13.50;91.80
67273;DHT22;54190;49.770;9.250;2023-06-14T03:54:11;13.50;91.80
67273;DHT22;54190;49.770;9.250;2023-06-14T03:56:37;13.50;91.60
67273;DHT22;54190;49.770;9.250;2023-06-14T03:59:03;13.40;91.50
67273;DHT22;54190;49.770;9.250;2023-06-14T04:01:29;13.40;91.90
67273;DHT22;54190;49.770;9.250;2023-06-14T04:03:58;13.40;92.10
67273;DHT22;54190;49.770;9.250;2023-06-14T04:06:25;13.40;92.30
67273;DHT22;54190;49.770;9.250;2023-06-14T04:08:58;13.40;92.50
67273;DHT22;54190;49.770;9.250;2023-06-14T04:11:27;13.40;92.50
67273;DHT22;54190;49.770;9.250;2023-06-14T04:13:53;13.40;92.80
67273;DHT22;54190;49.770;9.250;2023-06-14T04:16:19;13.50;93.00
67273;DHT22;54190;49.770;9.250;2023-06-14T04:18:45;13.50;93.30
67273;DHT22;54190;49.770;9.250;2023-06-14T04:21:12;13.50;93.20
67273;DHT22;54190;49.770;9.250;2023-06-14T04:23:38;13.50;93.20
67273;DHT22;54190;49.770;9.250;2023-06-14T04:26:04;13.50;93.40
67273;DHT22;54190;49.770;9.250;2023-06-14T04:28:30;13.50;93.70
67273;DHT22;54190;49.770;9.250;2023-06-14T04:30:58;13.60;93.50
67273;DHT22;54190;49.770;9.250;2023-06-14T04:33:28;13.60;93.70
67273;DHT22;54190;49.770;9.250;2023-06-14T04:35:54;13.60;93.70
67273;DHT22;54190;49.770;9.250;2023-06-14T04:38:21;13.60;94.40
67273;DHT22;54190;49.770;9.250;2023-06-14T04:40:52;13.50;94.40
67273;DHT22;54190;49.770;9.250;2023-06-14T04:43:19;13.60;94.50
67273;DHT22;54190;49.770;9.250;2023-06-14T04:45:53;13.60;94.10
67273;DHT22;54190;49.770;9.250;2023-06-14T04:48:21;13.70;93.50
67273;DHT22;54190;49.770;9.250;2023-06-14T04:50:48;13.70;93.70
67273;DHT22;54190;49.770;9.250;2023-06-14T04:53:19;13.80;94.00
67273;DHT22;54190;49.770;9.250;2023-06-14T04:55:47;13.90;94.30
67273;DHT22;54190;49.770;9.250;2023-06-14T04:58:13;13.90;94.30
67273;DHT22;54190;49.770;9.250;2023-06-14T05:00:39;13.90;94.50
67273;DHT22;54190;49.770;9.250;2023-06-14T05:03:05;14.00;94.60
67273;DHT22;54190;49.770;9.250;2023-06-14T05:05:31;14.00;94.80
67273;DHT22;54190;49.770;9.250;2023-06-14T05:07:59;14.10;94.90
67273;DHT22;54190;49.770;9.250;2023-06-14T05:10:25;14.10;95.40
67273;DHT22;54190;49.770;9.250;2023-06-14T05:12:50;14.10;95.10
67273;DHT22;54190;49.770;9.250;2023-06-14T05:15:18;14.20;95.40
67273;DHT22;54190;49.770;9.250;2023-06-14T05:17:46;14.30;95.40
67273;DHT22;54190;49.770;9.250;2023-06-14T05:20:18;14.30;96.10
67273;DHT22;54190;49.770;9.250;2023-06-14T05:22:44;14.30;95.60
67273;DHT22;54190;49.770;9.250;2023-06-14T05:25:09;14.40;95.70
67273;DHT22;54190;49.770;9.250;2023-06-14T05:27:35;14.50;95.20
67273;DHT22;54190;49.770;9.250;2023-06-14T05:30:03;14.50;95.50
67273;DHT22;54190;49.770;9.250;2023-06-14T05:32:29;14.60;95.80
67273;DHT22;54190;49.770;9.250;2023-06-14T05:34:55;14.60;95.50
67273;DHT22;54190;49.770;9.250;2023-06-14T05:37:21;14.70;96.10
67273;DHT22;54190;49.770;9.250;2023-06-14T05:39:46;14.80;94.80
67273;DHT22;54190;49.770;9.250;2023-06-14T05:42:12;15.00;95.20
67273;DHT22;54190;49.770;9.250;2023-06-14T05:44:38;15.20;94.00
67273;DHT22;54190;49.770;9.250;2023-06-14T05:47:04;15.20;92.90
67273;DHT22;54190;49.770;9.250;2023-06-14T05:49:29;15.40;91.70
67273;DHT22;54190;49.770;9.250;2023-06-14T05:51:55;15.50;92.30
67273;DHT22;54190;49.770;9.250;2023-06-14T05:54:20;15.60;92.30
67273;DHT22;54190;49.770;9.250;2023-06-14T05:56:46;15.60;91.40
67273;DHT22;54190;49.770;9.250;2023-06-14T05:59:12;15.70;90.90
67273;DHT22;54190;49.770;9.250;2023-06-14T06:01:37;15.90;91.40
67273;DHT22;54190;49.770;9.250;2023-06-14T06:04:05;16.00;90.30
67273;DHT22;54190;49.770;9.250;2023-06-14T06:06:31;16.10;90.10
67273;DHT22;54190;49.770;9.250;2023-06-14T06:08:58;16.10;90.30
67273;DHT22;54190;49.770;9.250;2023-06-14T06:11:24;16.20;90.70
67273;DHT22;54190;49.770;9.250;2023-06-14T06:13:49;16.30;90.00
67273;DHT22;54190;49.770;9.250;2023-06-14T06:16:15;16.40;88.00
67273;DHT22;54190;49.770;9.250;2023-06-14T06:18:41;16.50;89.50
67273;DHT22;54190;49.770;9.250;2023-06-14T06:21:06;16.60;87.50
67273;DHT22;54190;49.770;9.250;2023-06-14T06:23:32;16.60;89.00
67273;DHT22;54190;49.770;9.250;2023-06-14T06:25:58;16.70;88.40
67273;DHT22;54190;49.770;9.250;2023-06-14T06:28:23;16.70;87.40
67273;DHT22;54190;49.770;9.250;2023-06-14T06:30:49;16.80;88.60
67273;DHT22;54190;49.770;9.250;2023-06-14T06:33:15;16.90;86.20
67273;DHT22;54190;49.770;9.250;2023-06-14T06:35:41;16.90;85.40
67273;DHT22;54190;49.770;9.250;2023-06-14T06:38:07;16.90;85.30
67273;DHT22;54190;49.770;9.250;2023-06-14T06:40:34;17.00;86.80
67273;DHT22;54190;49.770;9.250;2023-06-14T06:42:59;17.10;85.50
67273;DHT22;54190;49.770;9.250;2023-06-14T06:45:26;17.20;87.30
67273;DHT22;54190;49.770;9.250;2023-06-14T06:47:52;17.30;85.60
67273;DHT22;54190;49.770;9.250;2023-06-14T06:50:18;17.40;86.20
67273;DHT22;54190;49.770;9.250;2023-06-14T06:52:44;17.50;86.50
67273;DHT22;54190;49.770;9.250;2023-06-14T06:55:10;17.60;85.70
67273;DHT22;54190;49.770;9.250;2023-06-14T06:57:36;17.70;86.30
67273;DHT22;54190;49.770;9.250;2023-06-14T07:00:02;17.80;85.50
67273;DHT22;54190;49.770;9.250;2023-06-14T07:02:31;17.80;84.80
67273;DHT22;54190;49.770;9.250;2023-06-14T07:04:57;17.90;85.30
67273;DHT22;54190;49.770;9.250;2023-06-14T07:07:22;17.90;85.00
67273;DHT22;54190;49.770;9.250;2023-06-14T07:09:48;18.00;85.00
67273;DHT22;54190;49.770;9.250;2023-06-14T07:12:13;18.10;85.30
67273;DHT22;54190;49.770;9.250;2023-06-14T07:14:39;18.20;83.40
67273;DHT22;54190;49.770;9.250;2023-06-14T07:17:05;18.40;83.40
67273;DHT22;54190;49.770;9.250;2023-06-14T07:19:31;18.40;81.60
67273;DHT22;54190;49.770;9.250;2023-06-14T07:21:58;18.60;83.70
67273;DHT22;54190;49.770;9.250;2023-06-14T07:24:24;18.70;82.70
67273;DHT22;54190;49.770;9.250;2023-06-14T07:26:49;18.90;81.80
67273;DHT22;54190;49.770;9.250;2023-06-14T07:29:15;19.00;80.90
67273;DHT22;54190;49.770;9.250;2023-06-14T07:31:42;19.20;83.50
67273;DHT22;54190;49.770;9.250;2023-06-14T07:34:08;19.40;80.60
67273;DHT22;54190;49.770;9.250;2023-06-14T07:36:33;19.60;80.20
67273;DHT22;54190;49.770;9.250;2023-06-14T07:38:59;19.60;79.90
67273;DHT22;54190;49.770;9.250;2023-06-14T07:41:25;19.80;81.10
67273;DHT22;54190;49.770;9.250;2023-06-14T07:43:51;19.90;82.10
67273;DHT22;54190;49.770;9.250;2023-06-14T07:46:16;20.10;80.00
67273;DHT22;54190;49.770;9.250;2023-06-14T07:48:42;20.30;79.50
67273;DHT22;54190;49.770;9.250;2023-06-14T07:51:08;20.40;77.80
67273;DHT22;54190;49.770;9.250;2023-06-14T07:53:34;20.50;77.60
67273;DHT22;54190;49.770;9.250;2023-06-14T07:55:59;20.60;78.00
67273;DHT22;54190;49.770;9.250;2023-06-14T07:58:25;20.60;76.60
67273;DHT22;54190;49.770;9.250;2023-06-14T08:00:51;20.70;76.10
67273;DHT22;54190;49.770;9.250;2023-06-14T08:03:17;20.80;75.30
67273;DHT22;54190;49.770;9.250;2023-06-14T08:05:43;21.00;76.40
67273;DHT22;54190;49.770;9.250;2023-06-14T08:08:09;21.10;75.00
67273;DHT22;54190;49.770;9.250;2023-06-14T08:10:35;21.10;73.40
67273;DHT22;54190;49.770;9.250;2023-06-14T08:13:00;21.10;73.70
67273;DHT22;54190;49.770;9.250;2023-06-14T08:15:26;21.10;72.60
67273;DHT22;54190;49.770;9.250;2023-06-14T08:17:52;20.90;72.30
67273;DHT22;54190;49.770;9.250;2023-06-14T08:20:17;21.00;74.10
67273;DHT22;54190;49.770;9.250;2023-06-14T08:22:43;21.00;75.50
67273;DHT22;54190;49.770;9.250;2023-06-14T08:25:09;21.30;72.50
67273;DHT22;54190;49.770;9.250;2023-06-14T08:27:35;21.30;73.40
67273;DHT22;54190;49.770;9.250;2023-06-14T08:30:02;21.40;73.70
67273;DHT22;54190;49.770;9.250;2023-06-14T08:32:28;21.60;73.80
67273;DHT22;54190;49.770;9.250;2023-06-14T08:34:54;21.70;71.60
67273;DHT22;54190;49.770;9.250;2023-06-14T08:37:20;21.80;71.00
67273;DHT22;54190;49.770;9.250;2023-06-14T08:39:46;21.80;69.50
67273;DHT22;54190;49.770;9.250;2023-06-14T08:42:12;21.80;70.60
67273;DHT22;54190;49.770;9.250;2023-06-14T08:44:39;21.90;69.50
67273;DHT22;54190;49.770;9.250;2023-06-14T08:47:06;21.90;68.80
67273;DHT22;54190;49.770;9.250;2023-06-14T08:49:32;22.00;69.30
67273;DHT22;54190;49.770;9.250;2023-06-14T08:52:00;22.00;67.50
67273;DHT22;54190;49.770;9.250;2023-06-14T08:54:27;21.70;70.50
67273;DHT22;54190;49.770;9.250;2023-06-14T08:56:56;21.80;69.70
67273;DHT22;54190;49.770;9.250;2023-06-14T08:59:28;21.90;67.20
67273;DHT22;54190;49.770;9.250;2023-06-14T09:01:54;22.00;68.10
67273;DHT22;54190;49.770;9.250;2023-06-14T09:04:23;22.30;69.70
67273;DHT22;54190;49.770;9.250;2023-06-14T09:06:55;22.10;66.50
67273;DHT22;54190;49.770;9.250;2023-06-14T09:09:21;22.00;65.30
67273;DHT22;54190;49.770;9.250;2023-06-14T09:11:49;22.00;68.50
67273;DHT22;54190;49.770;9.250;2023-06-14T09:14:15;22.10;67.80
67273;DHT22;54190;49.770;9.250;2023-06-14T09:16:41;22.20;68.00
67273;DHT22;54190;49.770;9.250;2023-06-14T09:19:07;22.40;68.40
67273;DHT22;54190;49.770;9.250;2023-06-14T09:21:35;22.60;65.00
67273;DHT22;54190;49.770;9.250;2023-06-14T09:24:02;22.70;63.50
67273;DHT22;54190;49.770;9.250;2023-06-14T09:26:29;22.80;63.40
67273;DHT22;54190;49.770;9.250;2023-06-14T09:28:55;22.80;65.70
67273;DHT22;54190;49.770;9.250;2023-06-14T09:31:21;22.70;64.00
67273;DHT22;54190;49.770;9.250;2023-06-14T09:33:50;22.70;65.70
67273;DHT22;54190;49.770;9.250;2023-06-14T09:36:26;22.90;63.10
67273;DHT22;54190;49.770;9.250;2023-06-14T09:38:56;22.50;61.80
67273;DHT22;54190;49.770;9.250;2023-06-14T09:41:41;22.30;62.40
67273;DHT22;54190;49.770;9.250;2023-06-14T09:44:09;22.40;63.10
67273;DHT22;54190;49.770;9.250;2023-06-14T09:46:38;22.30;60.80
67273;DHT22;54190;49.770;9.250;2023-06-14T09:49:05;22.40;63.10
67273;DHT22;54190;49.770;9.250;2023-06-14T09:51:31;22.80;64.40
67273;DHT22;54190;49.770;9.250;2023-06-14T09:54:02;23.10;64.90
67273;DHT22;54190;49.770;9.250;2023-06-14T09:56:41;23.50;61.70
67273;DHT22;54190;49.770;9.250;2023-06-14T09:59:10;23.60;58.90
67273;DHT22;54190;49.770;9.250;2023-06-14T10:01:42;23.70;57.80
67273;DHT22;54190;49.770;9.250;2023-06-14T10:04:09;23.90;59.40
67273;DHT22;54190;49.770;9.250;2023-06-14T10:06:45;24.00;57.00
67273;DHT22;54190;49.770;9.250;2023-06-14T10:09:11;24.00;59.90
67273;DHT22;54190;49.770;9.250;2023-06-14T10:11:37;24.20;58.20
67273;DHT22;54190;49.770;9.250;2023-06-14T10:14:12;24.20;55.50
67273;DHT22;54190;49.770;9.250;2023-06-14T10:17:03;24.20;56.70
67273;DHT22;54190;49.770;9.250;2023-06-14T10:19:37;24.20;53.60
67273;DHT22;54190;49.770;9.250;2023-06-14T10:22:23;24.20;57.80
67273;DHT22;54190;49.770;9.250;2023-06-14T10:24:51;24.30;54.30
67273;DHT22;54190;49.770;9.250;2023-06-14T10:27:17;24.30;52.40
67273;DHT22;54190;49.770;9.250;2023-06-14T10:32:21;24.50;53.20
67273;DHT22;54190;49.770;9.250;2023-06-14T10:35:00;24.00;53.80
67273;DHT22;54190;49.770;9.250;2023-06-14T10:37:26;23.20;54.90
67273;DHT22;54190;49.770;9.250;2023-06-14T10:39:52;22.50;56.80
67273;DHT22;54190;49.770;9.250;2023-06-14T10:42:19;22.40;55.80
67273;DHT22;54190;49.770;9.250;2023-06-14T10:44:49;22.60;53.50
67273;DHT22;54190;49.770;9.250;2023-06-14T10:47:34;22.80;52.70
67273;DHT22;54190;49.770;9.250;2023-06-14T10:50:08;22.90;54.40
67273;DHT22;54190;49.770;9.250;2023-06-14T10:52:39;22.90;52.90
67273;DHT22;54190;49.770;9.250;2023-06-14T10:55:12;22.80;53.90
67273;DHT22;54190;49.770;9.250;2023-06-14T10:57:50;22.20;55.40
67273;DHT22;54190;49.770;9.250;2023-06-14T11:00:25;22.10;55.30
67273;DHT22;54190;49.770;9.250;2023-06-14T11:10:51;22.90;52.70
67273;DHT22;54190;49.770;9.250;2023-06-14T11:13:19;23.20;53.30
67273;DHT22;54190;49.770;9.250;2023-06-14T11:15:47;23.30;53.20
67273;DHT22;54190;49.770;9.250;2023-06-14T11:18:13;23.30;53.00
67273;DHT22;54190;49.770;9.250;2023-06-14T11:20:40;23.10;55.80
67273;DHT22;54190;49.770;9.250;2023-06-14T11:23:05;23.20;56.30
67273;DHT22;54190;49.770;9.250;2023-06-14T11:25:32;23.30;53.80
67273;DHT22;54190;49.770;9.250;2023-06-14T11:27:58;23.50;54.90
67273;DHT22;54190;49.770;9.250;2023-06-14T11:30:26;23.80;54.40
67273;DHT22;54190;49.770;9.250;2023-06-14T11:32:53;24.20;54.90
67273;DHT22;54190;49.770;9.250;2023-06-14T11:35:21;24.50;54.00
67273;DHT22;54190;49.770;9.250;2023-06-14T11:37:49;24.70;54.20
67273;DHT22;54190;49.770;9.250;2023-06-14T11:40:17;24.80;53.50
67273;DHT22;54190;49.770;9.250;2023-06-14T11:42:43;24.80;51.90
67273;DHT22;54190;49.770;9.250;2023-06-14T11:45:10;24.90;52.00
67273;DHT22;54190;49.770;9.250;2023-06-14T11:47:37;24.90;53.30
67273;DHT22;54190;49.770;9.250;2023-06-14T11:50:05;25.00;51.40
67273;DHT22;54190;49.770;9.250;2023-06-14T11:52:31;24.90;53.10
67273;DHT22;54190;49.770;9.250;2023-06-14T11:54:58;25.00;48.60
67273;DHT22;54190;49.770;9.250;2023-06-14T11:57:24;25.10;51.10
67273;DHT22;54190;49.770;9.250;2023-06-14T12:04:10;24.50;50.20
67273;DHT22;54190;49.770;9.250;2023-06-14T12:06:36;24.30;49.10
67273;DHT22;54190;49.770;9.250;2023-06-14T12:09:06;24.10;49.20
67273;DHT22;54190;49.770;9.250;2023-06-14T12:11:36;24.10;49.90
67273;DHT22;54190;49.770;9.250;2023-06-14T12:14:05;24.30;52.20
67273;DHT22;54190;49.770;9.250;2023-06-14T12:16:36;24.00;49.20
67273;DHT22;54190;49.770;9.250;2023-06-14T12:19:13;23.90;53.80
67273;DHT22;54190;49.770;9.250;2023-06-14T12:21:40;24.20;51.10
67273;DHT22;54190;49.770;9.250;2023-06-14T12:24:07;24.30;49.50
67273;DHT22;54190;49.770;9.250;2023-06-14T12:26:33;24.30;50.10
67273;DHT22;54190;49.770;9.250;2023-06-14T12:28:59;24.50;48.30
67273;DHT22;54190;49.770;9.250;2023-06-14T12:31:25;24.40;48.50
67273;DHT22;54190;49.770;9.250;2023-06-14T12:33:52;24.30;50.00
67273;DHT22;54190;49.770;9.250;2023-06-14T12:36:17;24.10;50.60
67273;DHT22;54190;49.770;9.250;2023-06-14T12:38:43;24.10;50.30
67273;DHT22;54190;49.770;9.250;2023-06-14T12:41:08;24.20;49.80
67273;DHT22;54190;49.770;9.250;2023-06-14T12:43:34;24.30;50.00
67273;DHT22;54190;49.770;9.250;2023-06-14T12:46:00;24.40;49.30
67273;DHT22;54190;49.770;9.250;2023-06-14T12:48:26;24.50;51.20
67273;DHT22;54190;49.770;9.250;2023-06-14T12:50:57;24.60;50.50
67273;DHT22;54190;49.770;9.250;2023-06-14T12:53:23;24.90;51.70
67273;DHT22;54190;49.770;9.250;2023-06-14T12:55:49;25.10;49.50
67273;DHT22;54190;49.770;9.250;2023-06-14T12:58:14;24.80;49.00
67273;DHT22;54190;49.770;9.250;2023-06-14T13:00:42;24.80;48.70
67273;DHT22;54190;49.770;9.250;2023-06-14T13:03:09;24.40;49.30
67273;DHT22;54190;49.770;9.250;2023-06-14T13:05:35;24.30;51.40
67273;DHT22;54190;49.770;9.250;2023-06-14T13:08:01;24.50;51.30
67273;DHT22;54190;49.770;9.250;2023-06-14T13:10:26;24.60;48.50
67273;DHT22;54190;49.770;9.250;2023-06-14T13:12:53;24.80;46.90
67273;DHT22;54190;49.770;9.250;2023-06-14T13:15:18;25.00;48.80
67273;DHT22;54190;49.770;9.250;2023-06-14T13:17:44;25.30;50.20
67273;DHT22;54190;49.770;9.250;2023-06-14T13:20:14;25.30;51.30
67273;DHT22;54190;49.770;9.250;2023-06-14T13:22:41;25.40;48.60
67273;DHT22;54190;49.770;9.250;2023-06-14T13:25:07;24.90;50.70
67273;DHT22;54190;49.770;9.250;2023-06-14T13:27:33;24.60;49.70
67273;DHT22;54190;49.770;9.250;2023-06-14T13:29:58;24.30;51.10
67273;DHT22;54190;49.770;9.250;2023-06-14T13:32:24;24.50;53.30
67273;DHT22;54190;49.770;9.250;2023-06-14T13:34:50;24.90;50.50
67273;DHT22;54190;49.770;9.250;2023-06-14T13:37:16;25.30;47.70
67273;DHT22;54190;49.770;9.250;2023-06-14T13:39:41;25.80;50.10
67273;DHT22;54190;49.770;9.250;2023-06-14T13:42:07;26.10;47.60
67273;DHT22;54190;49.770;9.250;2023-06-14T13:44:33;26.20;48.50
67273;DHT22;54190;49.770;9.250;2023-06-14T13:46:59;26.30;46.10
67273;DHT22;54190;49.770;9.250;2023-06-14T13:49:25;26.10;46.00
67273;DHT22;54190;49.770;9.250;2023-06-14T13:51:51;25.60;44.50
67273;DHT22;54190;49.770;9.250;2023-06-14T13:54:19;25.40;49.10
67273;DHT22;54190;49.770;9.250;2023-06-14T13:56:47;25.60;46.80
67273;DHT22;54190;49.770;9.250;2023-06-14T13:59:12;25.50;45.40
67273;DHT22;54190;49.770;9.250;2023-06-14T14:01:39;25.70;45.20
67273;DHT22;54190;49.770;9.250;2023-06-14T14:04:04;26.10;46.40
67273;DHT22;54190;49.770;9.250;2023-06-14T14:06:30;26.50;45.60
67273;DHT22;54190;49.770;9.250;2023-06-14T14:08:57;26.70;42.50
67273;DHT22;54190;49.770;9.250;2023-06-14T14:11:22;26.50;44.30
67273;DHT22;54190;49.770;9.250;2023-06-14T14:13:48;26.10;45.00
67273;DHT22;54190;49.770;9.250;2023-06-14T14:16:14;25.60;46.20
67273;DHT22;54190;49.770;9.250;2023-06-14T14:18:40;25.40;46.30
67273;DHT22;54190;49.770;9.250;2023-06-14T14:21:06;25.30;45.20
67273;DHT22;54190;49.770;9.250;2023-06-14T14:23:32;24.90;43.90
67273;DHT22;54190;49.770;9.250;2023-06-14T14:25:58;24.90;47.00
67273;DHT22;54190;49.770;9.250;2023-06-14T14:28:23;25.30;47.30
67273;DHT22;54190;49.770;9.250;2023-06-14T14:30:49;25.70;46.80
67273;DHT22;54190;49.770;9.250;2023-06-14T14:33:15;25.80;43.10
67273;DHT22;54190;49.770;9.250;2023-06-14T14:35:43;25.80;43.40
67273;DHT22;54190;49.770;9.250;2023-06-14T14:38:11;25.90;45.00
67273;DHT22;54190;49.770;9.250;2023-06-14T14:40:37;26.00;46.30
67273;DHT22;54190;49.770;9.250;2023-06-14T14:43:03;26.20;43.30
67273;DHT22;54190;49.770;9.250;2023-06-14T14:45:28;26.20;45.60
67273;DHT22;54190;49.770;9.250;2023-06-14T14:47:54;26.30;43.60
67273;DHT22;54190;49.770;9.250;2023-06-14T14:50:20;26.20;44.30
67273;DHT22;54190;49.770;9.250;2023-06-14T14:52:46;25.90;45.20
67273;DHT22;54190;49.770;9.250;2023-06-14T14:55:11;25.40;44.40
67273;DHT22;54190;49.770;9.250;2023-06-14T14:57:37;25.00;45.70
67273;DHT22;54190;49.770;9.250;2023-06-14T15:00:06;24.50;45.20
67273;DHT22;54190;49.770;9.250;2023-06-14T15:02:32;24.00;46.10
67273;DHT22;54190;49.770;9.250;2023-06-14T15:04:57;23.80;46.80
67273;DHT22;54190;49.770;9.250;2023-06-14T15:07:27;23.70;48.50
67273;DHT22;54190;49.770;9.250;2023-06-14T15:09:54;23.50;48.20
67273;DHT22;54190;49.770;9.250;2023-06-14T15:12:19;23.60;47.00
67273;DHT22;54190;49.770;9.250;2023-06-14T15:14:51;23.80;46.60
67273;DHT22;54190;49.770;9.250;2023-06-14T15:17:20;23.90;47.40
67273;DHT22;54190;49.770;9.250;2023-06-14T15:19:46;24.10;47.70
67273;DHT22;54190;49.770;9.250;2023-06-14T15:22:13;24.10;49.10
67273;DHT22;54190;49.770;9.250;2023-06-14T15:24:40;23.90;48.70
67273;DHT22;54190;49.770;9.250;2023-06-14T15:27:06;24.00;48.10
67273;DHT22;54190;49.770;9.250;2023-06-14T15:29:32;24.00;48.40
67273;DHT22;54190;49.770;9.250;2023-06-14T15:31:58;24.20;49.50
67273;DHT22;54190;49.770;9.250;2023-06-14T15:34:23;24.60;49.50
67273;DHT22;54190;49.770;9.250;2023-06-14T15:36:49;24.80;45.80
67273;DHT22;54190;49.770;9.250;2023-06-14T15:39:15;24.70;46.10
67273;DHT22;54190;49.770;9.250;2023-06-14T15:41:41;24.70;45.00
67273;DHT22;54190;49.770;9.250;2023-06-14T15:44:07;24.80;45.30
67273;DHT22;54190;49.770;9.250;2023-06-14T15:46:33;24.70;45.60